CUL weather

Bachigualato Federal International Airport
Culiacán, Sinaloa, Mexico

Public forecast

Using degrees Celsius for public forecast. Weather courtesy of forecast.io.

Current aviation weather report (METAR) for Bachigualato Federal International Airport

Retrieved 2019/11/22 21:41 UTC (7 minutes ago):

MMCL 222141Z 26008KT 10SM FEW200 29/16 A2988 RMK 8/004

Aviation forecast (TAF) for Bachigualato Federal International Airport

Retrieved 2019/11/22 18:51 UTC (3 hours ago):

TAF TAF MMCL 221649Z 2218/2318 24010KT P6SM SKC FM230600 00000KT P6SM SKC